createdAt,value
2019-03-31T00:00:24.811Z,31.10
2019-03-31T00:01:24.818Z,29.70
2019-03-31T00:02:24.791Z,29.00
2019-03-31T00:03:24.790Z,30.00
2019-03-31T00:04:24.773Z,28.90
2019-03-31T00:05:24.779Z,27.40
2019-03-31T00:06:24.757Z,28.10
2019-03-31T00:07:24.734Z,26.40
2019-03-31T00:08:24.727Z,25.90
2019-03-31T00:09:24.714Z,25.60
2019-03-31T00:10:24.745Z,27.90
2019-03-31T00:11:24.693Z,29.50
2019-03-31T00:12:24.686Z,28.50
2019-03-31T00:13:24.674Z,28.60
2019-03-31T00:14:24.663Z,27.70
2019-03-31T00:15:24.669Z,31.30
2019-03-31T00:16:24.701Z,24.30
2019-03-31T00:17:24.630Z,26.00
2019-03-31T00:18:24.629Z,26.20
2019-03-31T00:19:24.619Z,26.40
2019-03-31T00:20:24.616Z,24.70
2019-03-31T00:21:24.584Z,25.10
2019-03-31T00:22:24.614Z,24.50
2019-03-31T00:23:24.563Z,23.60
2019-03-31T00:24:24.561Z,21.90
2019-03-31T00:25:24.561Z,26.40
2019-03-31T00:26:24.538Z,25.50
2019-03-31T00:27:24.521Z,26.20
2019-03-31T00:28:24.514Z,22.10
2019-03-31T00:29:24.501Z,23.40
2019-03-31T00:30:24.527Z,27.20
2019-03-31T00:31:24.493Z,24.10
2019-03-31T00:32:24.466Z,25.10
2019-03-31T00:33:24.456Z,26.60
2019-03-31T00:34:24.452Z,23.20
2019-03-31T00:35:24.436Z,21.80
2019-03-31T00:36:24.445Z,23.70
2019-03-31T00:37:24.421Z,23.80
2019-03-31T00:38:24.400Z,20.50
2019-03-31T00:39:24.397Z,22.70
2019-03-31T00:40:24.408Z,22.70
2019-03-31T00:41:24.400Z,23.50
2019-03-31T00:42:24.361Z,21.40
2019-03-31T00:43:24.354Z,24.60
2019-03-31T00:44:24.338Z,20.20
2019-03-31T00:45:24.329Z,22.60
2019-03-31T00:46:24.344Z,22.60
2019-03-31T00:47:24.311Z,21.30
2019-03-31T00:48:24.298Z,24.90
2019-03-31T00:49:24.292Z,24.10
2019-03-31T00:50:24.299Z,22.60
2019-03-31T00:51:24.313Z,21.10
2019-03-31T00:52:24.257Z,20.40
2019-03-31T00:53:24.294Z,23.10
2019-03-31T00:54:27.575Z,23.60
2019-03-31T00:55:24.222Z,21.70
2019-03-31T00:56:24.221Z,21.90
2019-03-31T00:57:24.233Z,23.80
2019-03-31T00:58:24.190Z,22.40
2019-03-31T00:59:24.200Z,23.90
2019-03-31T01:00:24.180Z,20.90
2019-03-31T01:01:35.732Z,23.90
2019-03-31T01:02:25.167Z,23.60
2019-03-31T01:03:24.134Z,23.30
2019-03-31T01:04:24.131Z,23.60
2019-03-31T01:05:24.115Z,23.30
2019-03-31T01:06:24.115Z,21.90
2019-03-31T01:07:24.112Z,22.50
2019-03-31T01:08:24.083Z,25.80
2019-03-31T01:09:24.072Z,23.30
2019-03-31T01:10:24.063Z,21.10
2019-03-31T01:11:24.049Z,22.00
2019-03-31T01:12:24.111Z,24.50
2019-03-31T01:13:24.028Z,24.70
2019-03-31T01:14:24.024Z,22.30
2019-03-31T01:15:24.034Z,24.90
2019-03-31T01:16:23.995Z,24.80
2019-03-31T01:17:24.005Z,24.40
2019-03-31T01:18:31.521Z,23.10
2019-03-31T01:19:31.499Z,25.60
2019-03-31T01:20:32.514Z,22.70
2019-03-31T01:21:23.943Z,26.40
2019-03-31T01:22:32.948Z,23.40
2019-03-31T01:23:31.509Z,24.10
2019-03-31T01:24:23.968Z,24.60
2019-03-31T01:25:31.445Z,25.00
2019-03-31T01:26:31.414Z,24.50
2019-03-31T01:27:32.588Z,25.10
2019-03-31T01:28:31.444Z,22.60
2019-03-31T01:29:23.863Z,21.70
2019-03-31T01:30:23.842Z,23.40
2019-03-31T01:31:23.832Z,24.10
2019-03-31T01:32:23.839Z,24.80
2019-03-31T01:33:23.809Z,23.30
2019-03-31T01:34:23.802Z,23.50
2019-03-31T01:35:23.810Z,23.40
2019-03-31T01:36:23.778Z,23.30
2019-03-31T01:37:23.830Z,25.90
2019-03-31T01:38:23.774Z,25.80
2019-03-31T01:39:23.841Z,22.60
2019-03-31T01:40:23.771Z,25.10
2019-03-31T01:41:23.724Z,22.30
2019-03-31T01:42:23.765Z,22.00
2019-03-31T01:43:23.704Z,23.20
2019-03-31T01:44:23.692Z,25.20
2019-03-31T01:45:23.699Z,23.20
2019-03-31T01:46:23.715Z,22.90
2019-03-31T01:47:23.690Z,25.00
2019-03-31T01:48:23.650Z,25.20
2019-03-31T01:49:23.661Z,22.70
2019-03-31T01:50:23.630Z,24.00
2019-03-31T01:51:23.616Z,22.70
2019-03-31T01:52:23.641Z,23.60
2019-03-31T01:53:23.592Z,23.00
2019-03-31T01:54:33.411Z,24.40
2019-03-31T01:55:31.125Z,24.80
2019-03-31T01:56:31.107Z,22.20
2019-03-31T01:57:33.291Z,25.40
2019-03-31T01:58:23.540Z,21.20
2019-03-31T01:59:23.526Z,26.10
2019-03-31T02:00:23.552Z,24.60
2019-03-31T02:01:23.508Z,24.70
2019-03-31T02:02:23.519Z,21.50
2019-03-31T02:03:23.493Z,24.00
2019-03-31T02:04:23.473Z,20.60
2019-03-31T02:05:23.472Z,23.60
2019-03-31T02:06:23.456Z,23.80
2019-03-31T02:07:23.456Z,24.50
2019-03-31T02:08:23.461Z,26.00
2019-03-31T02:09:23.428Z,24.60
2019-03-31T02:10:23.407Z,22.10
2019-03-31T02:11:23.416Z,23.90
2019-03-31T02:12:23.395Z,24.00
2019-03-31T02:13:23.394Z,23.70
2019-03-31T02:14:23.367Z,24.30
2019-03-31T02:15:23.355Z,21.90
2019-03-31T02:16:23.352Z,23.50
2019-03-31T02:17:23.334Z,22.00
2019-03-31T02:18:23.340Z,23.00
2019-03-31T02:19:23.332Z,23.50
2019-03-31T02:20:23.302Z,23.50
2019-03-31T02:21:23.292Z,23.10
2019-03-31T02:22:23.277Z,23.40
2019-03-31T02:23:23.301Z,23.60
2019-03-31T02:24:23.257Z,22.50
2019-03-31T02:25:23.276Z,22.00
2019-03-31T02:26:23.235Z,23.10
2019-03-31T02:27:23.253Z,22.10
2019-03-31T02:28:23.301Z,23.50
2019-03-31T02:29:23.214Z,23.30
2019-03-31T02:30:23.218Z,22.40
2019-03-31T02:31:23.188Z,23.20
2019-03-31T02:32:24.866Z,24.60
2019-03-31T02:33:23.220Z,24.30
2019-03-31T02:34:23.151Z,23.80
2019-03-31T02:35:23.162Z,20.10
2019-03-31T02:36:23.130Z,24.40
2019-03-31T02:37:23.144Z,26.00
2019-03-31T02:38:23.110Z,21.90
2019-03-31T02:39:23.211Z,22.90
2019-03-31T02:40:23.085Z,24.60
2019-03-31T02:41:23.077Z,26.00
2019-03-31T02:42:23.100Z,23.70
2019-03-31T02:43:23.061Z,24.30
2019-03-31T02:44:23.051Z,23.60
2019-03-31T02:45:23.078Z,25.00
2019-03-31T02:46:23.028Z,23.00
2019-03-31T02:47:23.043Z,24.30
2019-03-31T02:48:23.000Z,22.30
2019-03-31T02:49:22.998Z,22.40
2019-03-31T02:50:23.001Z,25.60
2019-03-31T02:51:22.965Z,26.80
2019-03-31T02:52:22.961Z,27.30
2019-03-31T02:53:22.944Z,25.00
2019-03-31T02:54:22.937Z,24.90
2019-03-31T02:55:22.989Z,23.80
2019-03-31T02:56:22.909Z,23.20
2019-03-31T02:57:22.897Z,21.40
2019-03-31T02:58:22.890Z,22.90
2019-03-31T02:59:22.884Z,25.70
2019-03-31T03:00:22.891Z,25.20
2019-03-31T03:01:22.893Z,21.50
2019-03-31T03:02:40.238Z,21.10
2019-03-31T03:03:23.947Z,20.40
2019-03-31T03:04:22.825Z,22.20
2019-03-31T03:05:22.818Z,24.30
2019-03-31T03:06:22.853Z,22.00
2019-03-31T03:07:22.812Z,22.50
2019-03-31T03:08:30.329Z,22.20
2019-03-31T03:09:30.333Z,22.90
2019-03-31T03:10:22.764Z,22.50
2019-03-31T03:11:22.776Z,22.20
2019-03-31T03:12:22.739Z,21.40
2019-03-31T03:13:22.767Z,22.90
2019-03-31T03:14:22.716Z,19.50
2019-03-31T03:15:22.709Z,21.80
2019-03-31T03:16:22.731Z,21.70
2019-03-31T03:17:22.684Z,19.30
2019-03-31T03:18:22.674Z,22.50
2019-03-31T03:19:22.667Z,21.80
2019-03-31T03:20:22.657Z,20.90
2019-03-31T03:21:31.385Z,21.70
2019-03-31T03:22:22.647Z,21.80
2019-03-31T03:23:22.623Z,19.20
2019-03-31T03:24:22.626Z,22.50
2019-03-31T03:25:22.599Z,21.20
2019-03-31T03:26:22.586Z,22.00
2019-03-31T03:27:22.612Z,22.70
2019-03-31T03:28:22.582Z,21.80
2019-03-31T03:29:22.559Z,22.20
2019-03-31T03:30:22.703Z,22.30
2019-03-31T03:31:22.632Z,23.20
2019-03-31T03:32:22.593Z,19.80
2019-03-31T03:33:22.528Z,22.80
2019-03-31T03:34:22.513Z,22.40
2019-03-31T03:35:22.514Z,21.70
2019-03-31T03:36:22.504Z,19.40
2019-03-31T03:37:22.469Z,22.30
2019-03-31T03:38:22.546Z,21.20
2019-03-31T03:39:22.448Z,22.60
2019-03-31T03:40:22.447Z,22.70
2019-03-31T03:41:22.436Z,21.60
2019-03-31T03:42:22.455Z,23.30
2019-03-31T03:43:22.435Z,22.60
2019-03-31T03:44:22.391Z,22.30
2019-03-31T03:45:22.408Z,22.30
2019-03-31T03:46:22.378Z,21.10
2019-03-31T03:47:22.380Z,20.80
2019-03-31T03:48:22.371Z,21.80
2019-03-31T03:49:22.352Z,23.50
2019-03-31T03:50:22.328Z,23.80
2019-03-31T03:51:22.343Z,20.70
2019-03-31T03:52:22.353Z,21.00
2019-03-31T03:53:22.335Z,23.00
2019-03-31T03:54:22.291Z,20.80
2019-03-31T03:55:22.291Z,22.60
2019-03-31T03:56:22.266Z,20.40
2019-03-31T03:57:22.271Z,21.50
2019-03-31T03:58:22.258Z,21.50
2019-03-31T03:59:22.248Z,23.10
2019-03-31T04:00:22.226Z,21.30
2019-03-31T04:01:22.245Z,23.30
2019-03-31T04:02:22.222Z,21.40
2019-03-31T04:03:30.487Z,21.30
2019-03-31T04:04:23.184Z,27.90
2019-03-31T04:05:22.168Z,24.30
2019-03-31T04:06:22.163Z,23.80
2019-03-31T04:07:22.163Z,24.70
2019-03-31T04:08:22.136Z,21.60
2019-03-31T04:09:22.137Z,22.50
2019-03-31T04:10:22.126Z,24.80
2019-03-31T04:11:22.261Z,23.40
2019-03-31T04:12:22.134Z,21.50
2019-03-31T04:13:22.300Z,22.10
2019-03-31T04:14:22.077Z,23.40
2019-03-31T04:15:22.077Z,22.50
2019-03-31T04:16:22.058Z,22.60
2019-03-31T04:17:22.090Z,21.80
2019-03-31T04:18:22.032Z,24.10
2019-03-31T04:19:22.018Z,24.50
2019-03-31T04:20:22.013Z,24.00
2019-03-31T04:21:22.016Z,22.20
2019-03-31T04:22:22.012Z,21.40
2019-03-31T04:23:21.982Z,23.30
2019-03-31T04:24:21.991Z,22.40
2019-03-31T04:25:21.954Z,25.40
2019-03-31T04:26:21.944Z,23.60
2019-03-31T04:27:21.980Z,22.20
2019-03-31T04:28:21.932Z,20.60
2019-03-31T04:29:21.917Z,20.60
2019-03-31T04:30:21.900Z,23.20
2019-03-31T04:31:21.887Z,21.50
2019-03-31T04:32:21.900Z,20.80
2019-03-31T04:33:21.881Z,21.40
2019-03-31T04:34:21.858Z,20.90
2019-03-31T04:35:21.857Z,22.20
2019-03-31T04:36:21.836Z,21.40
2019-03-31T04:37:21.839Z,21.70
2019-03-31T04:38:21.815Z,23.70
2019-03-31T04:39:21.814Z,21.10
2019-03-31T04:40:21.797Z,20.50
2019-03-31T04:41:21.781Z,22.20
2019-03-31T04:42:21.809Z,22.60
2019-03-31T04:43:21.757Z,23.20
2019-03-31T04:44:21.746Z,24.50
2019-03-31T04:45:21.741Z,21.40
2019-03-31T04:46:21.739Z,19.90
2019-03-31T04:47:21.738Z,24.40
2019-03-31T04:48:21.705Z,21.30
2019-03-31T04:49:21.702Z,21.70
2019-03-31T04:50:21.687Z,21.50
2019-03-31T04:51:21.746Z,21.50
2019-03-31T04:52:21.676Z,21.20
2019-03-31T04:53:21.652Z,22.80
2019-03-31T04:54:21.639Z,22.70
2019-03-31T04:55:21.689Z,23.30
2019-03-31T04:56:21.625Z,24.30
2019-03-31T04:57:21.629Z,21.00
2019-03-31T04:58:21.629Z,24.70
2019-03-31T04:59:21.593Z,23.70
2019-03-31T05:00:21.604Z,22.80
2019-03-31T05:01:21.591Z,24.40
2019-03-31T05:02:21.712Z,22.50
2019-03-31T05:03:21.579Z,24.10
2019-03-31T05:04:21.588Z,21.70
2019-03-31T05:05:21.522Z,23.40
2019-03-31T05:06:21.510Z,22.90
2019-03-31T05:07:21.525Z,25.70
2019-03-31T05:08:21.514Z,23.60
2019-03-31T05:09:21.540Z,21.10
2019-03-31T05:10:21.474Z,25.10
2019-03-31T05:11:21.458Z,24.30
2019-03-31T05:12:21.473Z,24.60
2019-03-31T05:13:21.442Z,23.60
2019-03-31T05:14:21.447Z,26.80
2019-03-31T05:15:21.418Z,24.00
2019-03-31T05:16:21.546Z,22.40
2019-03-31T05:17:21.414Z,22.00
2019-03-31T05:18:21.384Z,23.90
2019-03-31T05:19:21.373Z,24.80
2019-03-31T05:20:21.361Z,23.50
2019-03-31T05:21:21.350Z,24.30
2019-03-31T05:22:21.358Z,23.80
2019-03-31T05:23:21.396Z,25.20
2019-03-31T05:24:21.318Z,24.70
2019-03-31T05:25:21.413Z,26.20
2019-03-31T05:26:21.303Z,24.00
2019-03-31T05:27:29.918Z,22.90
2019-03-31T05:28:29.850Z,24.00
2019-03-31T05:29:30.102Z,24.40
2019-03-31T05:30:29.823Z,26.30
2019-03-31T05:31:28.810Z,22.40
2019-03-31T05:32:21.249Z,26.20
2019-03-31T05:33:21.217Z,26.10
2019-03-31T05:34:21.214Z,23.40
2019-03-31T05:35:21.200Z,23.00
2019-03-31T05:36:21.192Z,22.90
2019-03-31T05:37:21.228Z,20.80
2019-03-31T05:38:21.166Z,24.60
2019-03-31T05:39:21.155Z,21.80
2019-03-31T05:40:21.154Z,23.70
2019-03-31T05:41:21.137Z,22.20
2019-03-31T05:42:21.224Z,24.20
2019-03-31T05:43:21.150Z,23.60
2019-03-31T05:44:21.110Z,25.90
2019-03-31T05:45:21.093Z,23.10
2019-03-31T05:46:21.139Z,25.00
2019-03-31T05:47:21.112Z,24.40
2019-03-31T05:48:21.069Z,23.70
2019-03-31T05:49:21.091Z,26.30
2019-03-31T05:50:21.069Z,21.60
2019-03-31T05:51:21.042Z,23.60
2019-03-31T05:52:21.098Z,25.90
2019-03-31T05:53:21.013Z,23.50
2019-03-31T05:54:20.993Z,23.30
2019-03-31T05:55:20.991Z,24.20
2019-03-31T05:56:20.970Z,23.10
2019-03-31T05:57:20.963Z,26.60
2019-03-31T05:58:20.975Z,21.60
2019-03-31T05:59:20.939Z,22.10
2019-03-31T06:00:20.929Z,21.60
2019-03-31T06:01:20.928Z,21.60
2019-03-31T06:02:20.907Z,24.90
2019-03-31T06:03:20.936Z,22.50
2019-03-31T06:04:32.582Z,25.30
2019-03-31T06:05:21.888Z,25.60
2019-03-31T06:06:20.904Z,24.90
2019-03-31T06:07:20.851Z,25.50
2019-03-31T06:08:20.887Z,25.00
2019-03-31T06:09:20.845Z,27.60
2019-03-31T06:10:20.822Z,23.40
2019-03-31T06:11:20.818Z,23.00
2019-03-31T06:12:20.805Z,26.80
2019-03-31T06:13:20.819Z,27.10
2019-03-31T06:14:20.780Z,24.00
2019-03-31T06:15:20.786Z,27.30
2019-03-31T06:16:20.762Z,26.20
2019-03-31T06:17:20.768Z,23.70
2019-03-31T06:18:20.752Z,23.20
2019-03-31T06:19:20.749Z,27.70
2019-03-31T06:20:20.719Z,26.00
2019-03-31T06:21:20.723Z,25.50
2019-03-31T06:22:20.697Z,22.20
2019-03-31T06:23:20.702Z,23.30
2019-03-31T06:24:20.733Z,25.20
2019-03-31T06:25:20.680Z,26.10
2019-03-31T06:26:20.651Z,25.30
2019-03-31T06:27:20.650Z,25.30
2019-03-31T06:28:20.668Z,24.20
2019-03-31T06:29:20.643Z,27.40
2019-03-31T06:30:20.735Z,27.80
2019-03-31T06:31:20.594Z,25.20
2019-03-31T06:32:20.585Z,24.40
2019-03-31T06:33:20.572Z,26.20
2019-03-31T06:34:20.566Z,27.20
2019-03-31T06:35:20.608Z,24.20
2019-03-31T06:36:20.609Z,26.20
2019-03-31T06:37:20.531Z,25.30
2019-03-31T06:38:20.530Z,25.70
2019-03-31T06:39:20.576Z,27.20
2019-03-31T06:40:20.552Z,24.50
2019-03-31T06:41:20.496Z,24.00
2019-03-31T06:42:20.473Z,27.10
2019-03-31T06:43:20.509Z,26.50
2019-03-31T06:44:20.467Z,26.50
2019-03-31T06:45:20.464Z,24.20
2019-03-31T06:46:20.437Z,25.70
2019-03-31T06:47:20.428Z,28.90
2019-03-31T06:48:20.409Z,27.20
2019-03-31T06:49:20.408Z,27.00
2019-03-31T06:50:30.115Z,24.70
2019-03-31T06:51:20.375Z,27.90
2019-03-31T06:52:20.368Z,24.60
2019-03-31T06:53:20.361Z,25.50
2019-03-31T06:54:20.345Z,26.00
2019-03-31T06:55:20.356Z,25.70
2019-03-31T06:56:20.327Z,29.00
2019-03-31T06:57:20.322Z,28.70
2019-03-31T06:58:20.305Z,29.60
2019-03-31T06:59:20.312Z,28.40
2019-03-31T07:00:20.316Z,29.10
2019-03-31T07:01:20.268Z,27.00
2019-03-31T07:02:20.317Z,30.00
2019-03-31T07:03:20.309Z,28.40
2019-03-31T07:04:20.242Z,29.00
2019-03-31T07:05:20.299Z,26.20
2019-03-31T07:06:20.257Z,28.50
2019-03-31T07:07:23.588Z,28.30
2019-03-31T07:08:20.198Z,28.70
2019-03-31T07:09:20.184Z,29.00
2019-03-31T07:10:20.173Z,28.70
2019-03-31T07:11:20.183Z,27.90
2019-03-31T07:12:20.165Z,25.80
2019-03-31T07:13:20.147Z,28.80
2019-03-31T07:14:20.127Z,27.10
2019-03-31T07:15:20.117Z,28.40
2019-03-31T07:16:20.110Z,30.30
2019-03-31T07:17:20.115Z,30.60
2019-03-31T07:18:20.126Z,31.80
2019-03-31T07:19:20.087Z,33.60
2019-03-31T07:20:20.088Z,35.20
2019-03-31T07:21:20.050Z,33.00
2019-03-31T07:22:20.061Z,33.70
2019-03-31T07:23:20.075Z,34.60
2019-03-31T07:24:20.024Z,34.50
2019-03-31T07:25:20.064Z,39.10
2019-03-31T07:26:20.029Z,38.20
2019-03-31T07:27:19.990Z,40.20
2019-03-31T07:28:20.006Z,38.10
2019-03-31T07:29:19.990Z,38.30
2019-03-31T07:30:19.965Z,38.60
2019-03-31T07:31:19.981Z,42.20
2019-03-31T07:32:19.943Z,43.10
2019-03-31T07:33:19.938Z,43.50
2019-03-31T07:34:19.910Z,40.70
2019-03-31T07:35:19.914Z,42.70
2019-03-31T07:36:19.904Z,45.50
2019-03-31T07:37:19.941Z,44.80
2019-03-31T07:38:19.961Z,43.60
2019-03-31T07:39:20.188Z,47.70
2019-03-31T07:40:20.129Z,47.50
2019-03-31T07:41:20.201Z,45.00
2019-03-31T07:42:19.860Z,45.90
2019-03-31T07:43:19.998Z,45.80
2019-03-31T07:44:19.807Z,51.60
2019-03-31T07:45:19.799Z,46.40
2019-03-31T07:46:19.821Z,49.10
2019-03-31T07:47:19.773Z,51.70
2019-03-31T07:48:19.817Z,53.20
2019-03-31T07:49:19.752Z,51.40
2019-03-31T07:50:19.739Z,49.60
2019-03-31T07:51:27.288Z,52.80
2019-03-31T07:52:28.279Z,53.20
2019-03-31T07:53:19.727Z,52.40
2019-03-31T07:54:19.700Z,54.40
2019-03-31T07:55:19.683Z,54.40
2019-03-31T07:56:19.676Z,55.40
2019-03-31T07:57:19.663Z,52.70
2019-03-31T07:58:19.730Z,56.20
2019-03-31T07:59:19.651Z,52.00
2019-03-31T08:00:19.636Z,55.50
2019-03-31T08:01:19.619Z,51.90
2019-03-31T08:02:19.616Z,53.50
2019-03-31T08:03:19.627Z,55.50
2019-03-31T08:04:19.591Z,54.50
2019-03-31T08:05:32.371Z,52.40
2019-03-31T08:06:20.563Z,53.90
2019-03-31T08:07:19.552Z,57.40
2019-03-31T08:08:19.613Z,54.60
2019-03-31T08:09:19.540Z,51.80
2019-03-31T08:10:19.528Z,49.10
2019-03-31T08:11:19.511Z,46.10
2019-03-31T08:12:19.500Z,48.20
2019-03-31T08:13:19.598Z,45.80
2019-03-31T08:14:19.481Z,45.60
2019-03-31T08:15:19.538Z,46.90
2019-03-31T08:16:19.461Z,47.30
2019-03-31T08:17:19.455Z,47.30
2019-03-31T08:18:19.482Z,44.80
2019-03-31T08:19:20.883Z,52.10
2019-03-31T08:20:19.417Z,49.20
2019-03-31T08:21:19.399Z,51.30
2019-03-31T08:22:19.394Z,49.40
2019-03-31T08:23:19.404Z,52.30
2019-03-31T08:24:19.367Z,53.50
2019-03-31T08:25:19.372Z,53.70
2019-03-31T08:26:19.378Z,54.20
2019-03-31T08:27:19.347Z,52.50
2019-03-31T08:28:19.411Z,54.60
2019-03-31T08:29:19.334Z,53.70
2019-03-31T08:30:19.303Z,55.00
2019-03-31T08:31:19.292Z,58.00
2019-03-31T08:32:19.298Z,58.50
2019-03-31T08:33:19.334Z,59.80
2019-03-31T08:34:19.352Z,54.70
2019-03-31T08:35:19.248Z,55.80
2019-03-31T08:36:19.242Z,57.20
2019-03-31T08:37:19.236Z,62.30
2019-03-31T08:38:19.243Z,61.10
2019-03-31T08:39:19.208Z,58.60
2019-03-31T08:40:19.197Z,58.50
2019-03-31T08:41:19.182Z,57.70
2019-03-31T08:42:19.172Z,57.10
2019-03-31T08:43:19.235Z,68.00
2019-03-31T08:44:19.198Z,64.50
2019-03-31T08:45:19.145Z,59.40
2019-03-31T08:46:19.137Z,63.30
2019-03-31T08:47:19.216Z,62.50
2019-03-31T08:48:19.124Z,66.20
2019-03-31T08:49:19.106Z,60.40
2019-03-31T08:50:19.090Z,62.90
2019-03-31T08:51:19.090Z,57.50
2019-03-31T08:52:19.067Z,60.40
2019-03-31T08:53:19.081Z,62.30
2019-03-31T08:54:19.043Z,60.20
2019-03-31T08:55:19.063Z,60.30
2019-03-31T08:56:19.021Z,64.90
2019-03-31T08:57:19.011Z,62.30
2019-03-31T08:58:19.022Z,67.70
2019-03-31T08:59:19.016Z,66.20
2019-03-31T09:00:18.978Z,61.00
2019-03-31T09:01:18.968Z,60.10
2019-03-31T09:02:18.964Z,61.50
2019-03-31T09:03:19.070Z,60.80
2019-03-31T09:04:18.980Z,71.10
2019-03-31T09:05:18.927Z,61.60
2019-03-31T09:06:18.979Z,64.30
2019-03-31T09:07:18.913Z,62.10
2019-03-31T09:08:18.906Z,62.00
2019-03-31T09:09:18.913Z,66.10
2019-03-31T09:10:18.876Z,62.60
2019-03-31T09:11:18.862Z,61.80
2019-03-31T09:12:18.865Z,64.70
2019-03-31T09:13:18.881Z,66.00
2019-03-31T09:14:18.826Z,69.30
2019-03-31T09:15:26.412Z,66.90
2019-03-31T09:16:18.802Z,61.50
2019-03-31T09:17:18.790Z,60.80
2019-03-31T09:18:18.785Z,62.80
2019-03-31T09:19:18.785Z,60.70
2019-03-31T09:20:18.770Z,59.70
2019-03-31T09:21:18.774Z,62.40
2019-03-31T09:22:18.737Z,58.70
2019-03-31T09:23:18.731Z,61.10
2019-03-31T09:24:18.737Z,60.60
2019-03-31T09:25:18.706Z,62.20
2019-03-31T09:26:18.726Z,62.10
2019-03-31T09:27:18.716Z,61.80
2019-03-31T09:28:18.675Z,60.50
2019-03-31T09:29:18.732Z,64.90
2019-03-31T09:30:18.708Z,59.20
2019-03-31T09:31:18.640Z,63.90
2019-03-31T09:32:18.648Z,61.90
2019-03-31T09:33:18.635Z,62.50
2019-03-31T09:34:18.629Z,65.60
2019-03-31T09:35:18.599Z,56.80
2019-03-31T09:36:18.587Z,59.60
2019-03-31T09:37:18.576Z,60.90
2019-03-31T09:38:18.596Z,62.10
2019-03-31T09:39:18.595Z,59.00
2019-03-31T09:40:18.554Z,61.20
2019-03-31T09:41:18.537Z,60.50
2019-03-31T09:42:18.520Z,61.10
2019-03-31T09:43:18.521Z,56.60
2019-03-31T09:44:18.523Z,63.60
2019-03-31T09:45:18.495Z,58.30
2019-03-31T09:46:18.525Z,63.20
2019-03-31T09:47:18.466Z,57.90
2019-03-31T09:48:18.458Z,56.60
2019-03-31T09:49:18.487Z,57.40
2019-03-31T09:50:18.450Z,59.80
2019-03-31T09:51:18.424Z,59.10
2019-03-31T09:52:18.430Z,58.00
2019-03-31T09:53:18.402Z,57.40
2019-03-31T09:54:18.419Z,55.30
2019-03-31T09:55:18.399Z,58.20
2019-03-31T09:56:25.935Z,56.60
2019-03-31T09:57:26.951Z,55.40
2019-03-31T09:58:25.907Z,58.30
2019-03-31T09:59:18.355Z,57.70
2019-03-31T10:00:25.875Z,58.00
2019-03-31T10:01:26.877Z,53.80
2019-03-31T10:02:18.305Z,55.90
2019-03-31T10:03:18.295Z,59.90
2019-03-31T10:04:18.335Z,54.90
2019-03-31T10:05:18.273Z,57.60
2019-03-31T10:06:29.693Z,59.20
2019-03-31T10:07:19.255Z,56.80
2019-03-31T10:08:21.815Z,57.40
2019-03-31T10:09:18.253Z,59.10
2019-03-31T10:10:18.275Z,57.70
2019-03-31T10:11:18.216Z,57.40
2019-03-31T10:12:18.279Z,58.50
2019-03-31T10:13:18.194Z,57.40
2019-03-31T10:14:18.210Z,57.10
2019-03-31T10:15:18.183Z,60.00
2019-03-31T10:16:18.267Z,59.90
2019-03-31T10:17:18.148Z,63.00
2019-03-31T10:18:18.473Z,60.00
2019-03-31T10:19:18.181Z,58.80
2019-03-31T10:20:18.145Z,57.40
2019-03-31T10:21:18.112Z,56.90
2019-03-31T10:22:18.094Z,56.70
2019-03-31T10:23:18.116Z,60.40
2019-03-31T10:24:18.101Z,62.40
2019-03-31T10:25:18.061Z,60.80
2019-03-31T10:26:31.113Z,61.10
2019-03-31T10:27:19.046Z,63.50
2019-03-31T10:28:18.027Z,60.50
2019-03-31T10:29:18.059Z,62.90
2019-03-31T10:30:18.011Z,60.50
2019-03-31T10:31:18.003Z,57.70
2019-03-31T10:32:18.021Z,61.00
2019-03-31T10:33:18.006Z,56.20
2019-03-31T10:34:18.041Z,57.20
2019-03-31T10:35:17.994Z,56.50
2019-03-31T10:36:17.985Z,62.40
2019-03-31T10:37:18.043Z,56.60
2019-03-31T10:38:17.925Z,57.50
2019-03-31T10:39:17.930Z,57.50
2019-03-31T10:40:17.900Z,61.30
2019-03-31T10:41:17.949Z,57.30
2019-03-31T10:42:17.878Z,60.90
2019-03-31T10:43:17.866Z,56.40
2019-03-31T10:44:17.882Z,60.80
2019-03-31T10:45:17.866Z,60.40
2019-03-31T10:46:17.836Z,63.80
2019-03-31T10:47:17.837Z,58.30
2019-03-31T10:48:20.960Z,61.00
2019-03-31T10:49:17.824Z,57.70
2019-03-31T10:50:17.788Z,61.50
2019-03-31T10:51:17.782Z,56.30
2019-03-31T10:52:17.789Z,58.10
2019-03-31T10:53:17.763Z,59.00
2019-03-31T10:54:17.767Z,62.60
2019-03-31T10:55:17.797Z,56.00
2019-03-31T10:56:17.726Z,58.90
2019-03-31T10:57:17.722Z,56.30
2019-03-31T10:58:17.710Z,58.00
2019-03-31T10:59:17.745Z,57.70
2019-03-31T11:00:17.692Z,61.90
2019-03-31T11:01:17.674Z,59.40
2019-03-31T11:02:17.663Z,60.00
2019-03-31T11:03:17.660Z,57.00
2019-03-31T11:04:17.668Z,56.00
2019-03-31T11:05:17.637Z,58.00
2019-03-31T11:06:17.678Z,60.90
2019-03-31T11:07:17.615Z,57.10
2019-03-31T11:08:17.609Z,57.80
2019-03-31T11:09:17.611Z,56.50
2019-03-31T11:10:17.758Z,54.80
2019-03-31T11:11:17.570Z,57.30
2019-03-31T11:12:17.557Z,54.90
2019-03-31T11:13:17.556Z,55.50
2019-03-31T11:14:17.558Z,54.10
2019-03-31T11:15:17.606Z,54.20
2019-03-31T11:16:17.559Z,54.60
2019-03-31T11:17:17.508Z,56.60
2019-03-31T11:18:17.506Z,55.90
2019-03-31T11:19:17.538Z,55.60
2019-03-31T11:20:17.482Z,54.40
2019-03-31T11:21:17.467Z,51.70
2019-03-31T11:22:17.452Z,53.90
2019-03-31T11:23:17.452Z,49.10
2019-03-31T11:24:17.448Z,54.50
2019-03-31T11:25:22.074Z,53.30
2019-03-31T11:26:18.431Z,54.10
2019-03-31T11:27:17.413Z,53.30
2019-03-31T11:28:17.387Z,55.10
2019-03-31T11:29:17.403Z,49.70
2019-03-31T11:30:17.387Z,54.60
2019-03-31T11:31:18.057Z,53.20
2019-03-31T11:32:17.352Z,52.50
2019-03-31T11:33:17.354Z,50.60
2019-03-31T11:34:19.651Z,52.70
2019-03-31T11:35:17.317Z,49.20
2019-03-31T11:36:17.303Z,50.80
2019-03-31T11:37:17.325Z,50.00
2019-03-31T11:38:17.287Z,48.50
2019-03-31T11:39:17.291Z,43.70
2019-03-31T11:40:17.290Z,48.80
2019-03-31T11:41:17.274Z,45.80
2019-03-31T11:42:17.263Z,48.00
2019-03-31T11:43:25.777Z,49.70
2019-03-31T11:44:17.228Z,43.40
2019-03-31T11:45:17.238Z,46.90
2019-03-31T11:46:17.224Z,45.10
2019-03-31T11:47:17.177Z,43.10
2019-03-31T11:48:17.180Z,47.60
2019-03-31T11:49:17.216Z,43.60
2019-03-31T11:50:17.156Z,44.60
2019-03-31T11:51:17.136Z,42.90
2019-03-31T11:52:17.130Z,45.90
2019-03-31T11:53:17.120Z,47.60
2019-03-31T11:54:17.159Z,44.70
2019-03-31T11:55:17.112Z,43.40
2019-03-31T11:56:17.095Z,43.80
2019-03-31T11:57:17.663Z,41.40
2019-03-31T11:58:17.077Z,46.20
2019-03-31T11:59:17.061Z,43.80
2019-03-31T12:00:17.063Z,42.20
2019-03-31T12:01:17.102Z,45.10
2019-03-31T12:02:27.134Z,42.50
2019-03-31T12:03:18.005Z,46.00
2019-03-31T12:04:16.993Z,42.90
2019-03-31T12:05:17.020Z,43.00
2019-03-31T12:06:17.038Z,44.90
2019-03-31T12:07:27.176Z,44.60
2019-03-31T12:08:17.979Z,42.50
2019-03-31T12:09:17.399Z,39.30
2019-03-31T12:10:19.775Z,41.60
2019-03-31T12:11:16.966Z,39.20
2019-03-31T12:12:16.919Z,41.10
2019-03-31T12:13:16.920Z,38.30
2019-03-31T12:14:16.885Z,38.30
2019-03-31T12:15:16.897Z,35.70
2019-03-31T12:16:16.877Z,39.60
2019-03-31T12:17:16.884Z,38.50
2019-03-31T12:18:16.849Z,35.00
2019-03-31T12:19:16.856Z,37.00
2019-03-31T12:20:16.836Z,34.70
2019-03-31T12:21:16.845Z,34.40
2019-03-31T12:22:16.801Z,37.40
2019-03-31T12:23:16.925Z,33.70
2019-03-31T12:24:16.792Z,34.20
2019-03-31T12:26:45.179Z,30.60
2019-03-31T12:27:45.153Z,31.80
2019-03-31T12:28:45.139Z,33.30
2019-03-31T12:29:54.760Z,31.10
2019-03-31T12:30:45.117Z,29.40
2019-03-31T12:31:45.107Z,30.00
2019-03-31T12:32:45.110Z,31.40
2019-03-31T12:33:45.088Z,30.20
2019-03-31T12:34:45.094Z,29.00
2019-03-31T12:35:45.060Z,29.80
2019-03-31T12:36:45.103Z,29.70
2019-03-31T12:37:45.042Z,29.00
2019-03-31T12:38:45.154Z,29.60
2019-03-31T12:39:45.045Z,29.30
2019-03-31T12:40:45.027Z,27.40
2019-03-31T12:41:44.998Z,29.60
2019-03-31T12:42:44.987Z,29.90
2019-03-31T12:43:44.977Z,32.00
2019-03-31T12:44:44.986Z,28.30
2019-03-31T12:45:44.956Z,26.00
2019-03-31T12:46:44.944Z,27.50
2019-03-31T12:47:44.932Z,25.10
2019-03-31T12:48:44.920Z,27.30
2019-03-31T12:49:44.936Z,27.20
2019-03-31T12:50:44.900Z,26.90
2019-03-31T12:51:44.912Z,29.70
2019-03-31T12:52:47.468Z,28.80
2019-03-31T12:53:44.865Z,25.30